sensor_id;sensor_type;location;lat;lon;timestamp;pressure;altitude;pressure_sealevel;temperature;humidity
9415;BME280;4746;35.664;139.738;2022-09-09T00:02:19;100315.41;;;31.40;57.43
9415;BME280;4746;35.664;139.738;2022-09-09T00:05:39;100316.72;;;31.34;57.23
9415;BME280;4746;35.664;139.738;2022-09-09T00:08:25;100317.03;;;31.19;57.08
9415;BME280;4746;35.664;139.738;2022-09-09T00:11:03;100314.56;;;31.05;57.72
9415;BME280;4746;35.664;139.738;2022-09-09T00:13:42;100310.78;;;30.97;58.00
9415;BME280;4746;35.664;139.738;2022-09-09T00:16:25;100308.47;;;30.92;57.86
9415;BME280;4746;35.664;139.738;2022-09-09T00:22:21;100317.47;;;31.02;57.65
9415;BME280;4746;35.664;139.738;2022-09-09T00:24:56;100336.38;;;31.08;57.52
9415;BME280;4746;35.664;139.738;2022-09-09T00:27:42;100319.41;;;31.11;57.12
9415;BME280;4746;35.664;139.738;2022-09-09T00:30:24;100332.16;;;31.06;57.08
9415;BME280;4746;35.664;139.738;2022-09-09T00:33:01;100328.78;;;31.04;57.36
9415;BME280;4746;35.664;139.738;2022-09-09T00:35:44;100321.56;;;31.06;57.14
9415;BME280;4746;35.664;139.738;2022-09-09T00:43:32;100335.38;;;30.99;57.17
9415;BME280;4746;35.664;139.738;2022-09-09T00:52:04;100350.81;;;30.92;56.96
9415;BME280;4746;35.664;139.738;2022-09-09T00:55:07;100349.63;;;30.85;57.84
9415;BME280;4746;35.664;139.738;2022-09-09T00:57:39;100343.53;;;30.72;57.76
9415;BME280;4746;35.664;139.738;2022-09-09T01:00:31;100338.94;;;30.74;57.58
9415;BME280;4746;35.664;139.738;2022-09-09T01:06:16;100333.84;;;30.60;57.88
9415;BME280;4746;35.664;139.738;2022-09-09T01:12:34;100348.06;;;30.47;58.75
9415;BME280;4746;35.664;139.738;2022-09-09T01:15:21;100347.72;;;30.39;58.58
9415;BME280;4746;35.664;139.738;2022-09-09T01:18:16;100355.13;;;30.46;58.44
9415;BME280;4746;35.664;139.738;2022-09-09T01:21:29;100352.69;;;30.43;58.73
9415;BME280;4746;35.664;139.738;2022-09-09T01:24:31;100351.44;;;30.36;58.62
9415;BME280;4746;35.664;139.738;2022-09-09T01:27:06;100345.13;;;30.27;59.01
9415;BME280;4746;35.664;139.738;2022-09-09T01:29:34;100349.28;;;30.18;59.10
9415;BME280;4746;35.664;139.738;2022-09-09T01:32:40;100356.22;;;30.19;59.41
9415;BME280;4746;35.664;139.738;2022-09-09T01:36:05;100346.94;;;30.14;59.72
9415;BME280;4746;35.664;139.738;2022-09-09T01:38:36;100354.66;;;30.04;60.03
9415;BME280;4746;35.664;139.738;2022-09-09T01:41:04;100355.94;;;29.99;61.02
9415;BME280;4746;35.664;139.738;2022-09-09T01:43:32;100362.06;;;30.12;60.60
9415;BME280;4746;35.664;139.738;2022-09-09T01:46:01;100354.88;;;30.14;60.52
9415;BME280;4746;35.664;139.738;2022-09-09T01:48:30;100354.22;;;30.23;60.20
9415;BME280;4746;35.664;139.738;2022-09-09T01:50:58;100350.41;;;30.27;60.43
9415;BME280;4746;35.664;139.738;2022-09-09T01:53:25;100350.13;;;30.42;60.68
9415;BME280;4746;35.664;139.738;2022-09-09T01:59:03;100351.19;;;30.88;59.88
9415;BME280;4746;35.664;139.738;2022-09-09T02:04:56;100351.66;;;31.05;59.84
9415;BME280;4746;35.664;139.738;2022-09-09T02:07:42;100346.63;;;31.13;59.91
9415;BME280;4746;35.664;139.738;2022-09-09T02:10:30;100351.50;;;31.30;59.42
9415;BME280;4746;35.664;139.738;2022-09-09T02:13:14;100348.28;;;31.37;59.16
9415;BME280;4746;35.664;139.738;2022-09-09T02:19:15;100339.09;;;31.54;58.88
9415;BME280;4746;35.664;139.738;2022-09-09T02:21:55;100338.16;;;31.42;59.13
9415;BME280;4746;35.664;139.738;2022-09-09T02:24:23;100338.13;;;31.31;59.52
9415;BME280;4746;35.664;139.738;2022-09-09T02:26:56;100340.78;;;31.31;59.34
9415;BME280;4746;35.664;139.738;2022-09-09T02:29:41;100337.91;;;31.34;59.63
9415;BME280;4746;35.664;139.738;2022-09-09T02:32:17;100337.69;;;31.37;59.57
9415;BME280;4746;35.664;139.738;2022-09-09T02:35:00;100338.34;;;31.52;59.38
9415;BME280;4746;35.664;139.738;2022-09-09T02:37:37;100325.59;;;31.68;58.79
9415;BME280;4746;35.664;139.738;2022-09-09T02:40:09;100323.19;;;31.97;58.38
9415;BME280;4746;35.664;139.738;2022-09-09T02:42:42;100316.84;;;32.33;57.60
9415;BME280;4746;35.664;139.738;2022-09-09T02:45:18;100312.75;;;32.82;56.08
9415;BME280;4746;35.664;139.738;2022-09-09T02:50:59;100301.94;;;33.96;53.85
9415;BME280;4746;35.664;139.738;2022-09-09T02:56:52;100295.41;;;34.49;51.88
9415;BME280;4746;35.664;139.738;2022-09-09T02:59:22;100286.88;;;34.55;50.77
9415;BME280;4746;35.664;139.738;2022-09-09T03:01:52;100284.53;;;34.52;50.56
9415;BME280;4746;35.664;139.738;2022-09-09T03:04:20;100286.78;;;34.56;50.27
9415;BME280;4746;35.664;139.738;2022-09-09T03:06:48;100291.41;;;34.73;49.77
9415;BME280;4746;35.664;139.738;2022-09-09T03:09:16;100280.75;;;34.82;49.56
9415;BME280;4746;35.664;139.738;2022-09-09T03:11:43;100274.44;;;34.83;48.75
9415;BME280;4746;35.664;139.738;2022-09-09T03:14:11;100265.34;;;34.76;48.66
9415;BME280;4746;35.664;139.738;2022-09-09T03:16:38;100255.50;;;34.67;48.75
9415;BME280;4746;35.664;139.738;2022-09-09T03:19:06;100253.41;;;34.62;48.56
9415;BME280;4746;35.664;139.738;2022-09-09T03:21:33;100250.31;;;34.57;49.07
9415;BME280;4746;35.664;139.738;2022-09-09T03:24:01;100250.13;;;34.49;48.67
9415;BME280;4746;35.664;139.738;2022-09-09T03:26:31;100238.34;;;34.51;49.26
9415;BME280;4746;35.664;139.738;2022-09-09T03:28:58;100241.22;;;34.68;48.73
9415;BME280;4746;35.664;139.738;2022-09-09T03:31:27;100238.81;;;34.84;48.51
9415;BME280;4746;35.664;139.738;2022-09-09T03:33:58;100242.88;;;34.98;47.62
9415;BME280;4746;35.664;139.738;2022-09-09T03:36:28;100235.63;;;35.00;47.87
9415;BME280;4746;35.664;139.738;2022-09-09T03:38:56;100216.28;;;34.79;47.72
9415;BME280;4746;35.664;139.738;2022-09-09T03:41:25;100234.50;;;34.64;48.27
9415;BME280;4746;35.664;139.738;2022-09-09T03:43:54;100224.81;;;34.54;48.29
9415;BME280;4746;35.664;139.738;2022-09-09T03:46:24;100222.97;;;34.55;48.58
9415;BME280;4746;35.664;139.738;2022-09-09T03:48:52;100215.16;;;34.63;48.58
9415;BME280;4746;35.664;139.738;2022-09-09T03:51:20;100212.06;;;34.76;48.05
9415;BME280;4746;35.664;139.738;2022-09-09T03:53:48;100208.69;;;34.74;48.16
9415;BME280;4746;35.664;139.738;2022-09-09T03:56:16;100209.41;;;34.67;48.28
9415;BME280;4746;35.664;139.738;2022-09-09T03:58:43;100207.31;;;34.70;47.83
9415;BME280;4746;35.664;139.738;2022-09-09T04:01:14;100204.91;;;34.86;48.15
9415;BME280;4746;35.664;139.738;2022-09-09T04:03:43;100200.00;;;35.01;47.30
9415;BME280;4746;35.664;139.738;2022-09-09T04:06:12;100214.59;;;35.06;46.78
9415;BME280;4746;35.664;139.738;2022-09-09T04:08:41;100198.28;;;35.09;47.22
9415;BME280;4746;35.664;139.738;2022-09-09T04:11:09;100201.38;;;35.14;46.92
9415;BME280;4746;35.664;139.738;2022-09-09T04:13:38;100205.50;;;35.35;46.33
9415;BME280;4746;35.664;139.738;2022-09-09T04:16:11;100190.81;;;35.68;46.10
9415;BME280;4746;35.664;139.738;2022-09-09T04:18:42;100189.63;;;35.80;45.77
9415;BME280;4746;35.664;139.738;2022-09-09T04:21:11;100189.50;;;36.08;45.03
9415;BME280;4746;35.664;139.738;2022-09-09T04:23:39;100192.56;;;36.30;44.61
9415;BME280;4746;35.664;139.738;2022-09-09T04:26:07;100198.16;;;36.54;44.05
9415;BME280;4746;35.664;139.738;2022-09-09T04:28:37;100182.16;;;36.79;43.90
9415;BME280;4746;35.664;139.738;2022-09-09T04:31:17;100184.91;;;37.05;43.35
9415;BME280;4746;35.664;139.738;2022-09-09T04:33:45;100180.31;;;37.40;42.69
9415;BME280;4746;35.664;139.738;2022-09-09T04:36:13;100176.53;;;37.92;41.69
9415;BME280;4746;35.664;139.738;2022-09-09T04:38:41;100188.88;;;38.58;40.86
9415;BME280;4746;35.664;139.738;2022-09-09T04:41:08;100180.22;;;38.88;39.71
9415;BME280;4746;35.664;139.738;2022-09-09T04:43:39;100173.84;;;38.65;39.56
9415;BME280;4746;35.664;139.738;2022-09-09T04:46:07;100174.81;;;38.40;39.56
9415;BME280;4746;35.664;139.738;2022-09-09T04:48:34;100170.47;;;38.55;39.88
9415;BME280;4746;35.664;139.738;2022-09-09T04:51:06;100166.44;;;38.98;39.03
9415;BME280;4746;35.664;139.738;2022-09-09T04:53:34;100164.47;;;39.08;38.52
9415;BME280;4746;35.664;139.738;2022-09-09T04:56:06;100164.63;;;38.91;38.38
9415;BME280;4746;35.664;139.738;2022-09-09T04:58:34;100159.25;;;38.91;38.34
9415;BME280;4746;35.664;139.738;2022-09-09T05:01:17;100157.09;;;39.03;38.78
9415;BME280;4746;35.664;139.738;2022-09-09T05:03:46;100162.78;;;38.84;38.52
9415;BME280;4746;35.664;139.738;2022-09-09T05:06:17;100157.59;;;38.82;38.31
9415;BME280;4746;35.664;139.738;2022-09-09T05:08:46;100146.41;;;38.63;38.90
9415;BME280;4746;35.664;139.738;2022-09-09T05:11:18;100146.22;;;38.80;38.37
9415;BME280;4746;35.664;139.738;2022-09-09T05:13:47;100141.66;;;38.97;38.23
9415;BME280;4746;35.664;139.738;2022-09-09T05:16:15;100142.00;;;39.09;38.36
9415;BME280;4746;35.664;139.738;2022-09-09T05:18:46;100140.28;;;39.24;38.02
9415;BME280;4746;35.664;139.738;2022-09-09T05:21:16;100134.22;;;39.30;38.01
9415;BME280;4746;35.664;139.738;2022-09-09T05:23:45;100136.53;;;39.33;37.44
9415;BME280;4746;35.664;139.738;2022-09-09T05:26:16;100125.88;;;39.25;37.55
9415;BME280;4746;35.664;139.738;2022-09-09T05:28:45;100122.63;;;39.46;37.29
9415;BME280;4746;35.664;139.738;2022-09-09T05:31:15;100127.78;;;40.16;36.22
9415;BME280;4746;35.664;139.738;2022-09-09T05:33:46;100119.59;;;41.13;35.00
9415;BME280;4746;35.664;139.738;2022-09-09T05:36:23;100121.38;;;42.41;33.07
9415;BME280;4746;35.664;139.738;2022-09-09T05:38:51;100114.31;;;44.02;30.97
9415;BME280;4746;35.664;139.738;2022-09-09T05:41:20;100122.63;;;44.07;30.51
9415;BME280;4746;35.664;139.738;2022-09-09T05:43:51;100116.38;;;43.87;30.73
9415;BME280;4746;35.664;139.738;2022-09-09T05:46:21;100110.88;;;44.47;30.55
9415;BME280;4746;35.664;139.738;2022-09-09T05:48:53;100107.75;;;44.95;29.69
9415;BME280;4746;35.664;139.738;2022-09-09T05:51:27;100102.72;;;46.49;27.90
9415;BME280;4746;35.664;139.738;2022-09-09T05:53:57;100093.78;;;47.26;26.49
9415;BME280;4746;35.664;139.738;2022-09-09T05:56:29;100103.69;;;46.79;26.65
9415;BME280;4746;35.664;139.738;2022-09-09T05:58:57;100099.03;;;46.06;27.05
9415;BME280;4746;35.664;139.738;2022-09-09T06:01:34;100100.88;;;45.75;27.08
9415;BME280;4746;35.664;139.738;2022-09-09T06:04:02;100095.06;;;46.02;26.60
9415;BME280;4746;35.664;139.738;2022-09-09T06:06:38;100094.13;;;45.84;27.42
9415;BME280;4746;35.664;139.738;2022-09-09T06:09:08;100095.69;;;46.59;26.69
9415;BME280;4746;35.664;139.738;2022-09-09T06:11:39;100092.31;;;47.06;25.52
9415;BME280;4746;35.664;139.738;2022-09-09T06:14:08;100097.91;;;46.75;26.04
9415;BME280;4746;35.664;139.738;2022-09-09T06:16:36;100092.75;;;46.43;26.24
9415;BME280;4746;35.664;139.738;2022-09-09T06:19:09;100099.16;;;46.48;26.44
9415;BME280;4746;35.664;139.738;2022-09-09T06:21:39;100106.34;;;46.85;25.40
9415;BME280;4746;35.664;139.738;2022-09-09T06:24:08;100109.47;;;47.07;24.86
9415;BME280;4746;35.664;139.738;2022-09-09T06:26:38;100098.44;;;47.44;25.08
9415;BME280;4746;35.664;139.738;2022-09-09T06:29:09;100095.88;;;48.07;23.93
9415;BME280;4746;35.664;139.738;2022-09-09T06:31:38;100091.41;;;48.13;23.99
9415;BME280;4746;35.664;139.738;2022-09-09T06:34:08;100082.06;;;49.07;23.25
9415;BME280;4746;35.664;139.738;2022-09-09T06:36:38;100083.63;;;49.93;22.02
9415;BME280;4746;35.664;139.738;2022-09-09T06:39:07;100082.75;;;49.25;22.89
9415;BME280;4746;35.664;139.738;2022-09-09T06:41:38;100088.59;;;49.56;22.57
9415;BME280;4746;35.664;139.738;2022-09-09T06:44:05;100089.50;;;49.73;21.72
9415;BME280;4746;35.664;139.738;2022-09-09T06:46:33;100085.66;;;49.46;22.19
9415;BME280;4746;35.664;139.738;2022-09-09T06:49:08;100079.56;;;49.17;22.87
9415;BME280;4746;35.664;139.738;2022-09-09T06:51:38;100084.78;;;48.61;23.24
9415;BME280;4746;35.664;139.738;2022-09-09T06:54:10;100083.28;;;48.24;23.41
9415;BME280;4746;35.664;139.738;2022-09-09T06:56:41;100087.16;;;48.92;22.97
9415;BME280;4746;35.664;139.738;2022-09-09T06:59:10;100098.31;;;50.19;21.53
9415;BME280;4746;35.664;139.738;2022-09-09T07:01:41;100099.00;;;50.59;20.92
9415;BME280;4746;35.664;139.738;2022-09-09T07:04:11;100098.84;;;49.04;22.05
9415;BME280;4746;35.664;139.738;2022-09-09T07:06:45;100097.78;;;47.24;23.53
9415;BME280;4746;35.664;139.738;2022-09-09T07:09:16;100109.72;;;46.26;24.75
9415;BME280;4746;35.664;139.738;2022-09-09T07:11:47;100104.06;;;46.03;25.43
9415;BME280;4746;35.664;139.738;2022-09-09T07:14:16;100103.06;;;46.52;24.65
9415;BME280;4746;35.664;139.738;2022-09-09T07:16:45;100099.88;;;47.76;23.66
9415;BME280;4746;35.664;139.738;2022-09-09T07:19:14;100107.28;;;48.79;22.58
9415;BME280;4746;35.664;139.738;2022-09-09T07:21:42;100108.31;;;48.56;22.93
9415;BME280;4746;35.664;139.738;2022-09-09T07:24:11;100118.44;;;47.07;24.16
9415;BME280;4746;35.664;139.738;2022-09-09T07:26:40;100115.78;;;46.28;24.86
9415;BME280;4746;35.664;139.738;2022-09-09T07:29:08;100114.69;;;46.59;24.95
9415;BME280;4746;35.664;139.738;2022-09-09T07:31:38;100107.91;;;46.50;25.03
9415;BME280;4746;35.664;139.738;2022-09-09T07:34:07;100116.16;;;45.94;25.31
9415;BME280;4746;35.664;139.738;2022-09-09T07:36:38;100112.75;;;44.79;25.99
9415;BME280;4746;35.664;139.738;2022-09-09T07:39:09;100115.63;;;43.26;28.16
9415;BME280;4746;35.664;139.738;2022-09-09T07:41:44;100111.47;;;42.27;29.21
9415;BME280;4746;35.664;139.738;2022-09-09T07:44:20;100114.53;;;41.39;30.47
9415;BME280;4746;35.664;139.738;2022-09-09T07:46:54;100115.53;;;40.44;31.84
9415;BME280;4746;35.664;139.738;2022-09-09T07:49:21;100119.69;;;39.63;33.22
9415;BME280;4746;35.664;139.738;2022-09-09T07:51:49;100125.06;;;39.09;34.32
9415;BME280;4746;35.664;139.738;2022-09-09T07:54:21;100130.66;;;38.60;35.10
9415;BME280;4746;35.664;139.738;2022-09-09T07:56:51;100120.53;;;38.14;35.88
9415;BME280;4746;35.664;139.738;2022-09-09T07:59:19;100127.50;;;37.83;36.69
9415;BME280;4746;35.664;139.738;2022-09-09T08:01:50;100120.00;;;37.53;37.36
9415;BME280;4746;35.664;139.738;2022-09-09T08:04:24;100115.53;;;37.29;37.78
9415;BME280;4746;35.664;139.738;2022-09-09T08:06:55;100121.53;;;36.97;38.76
9415;BME280;4746;35.664;139.738;2022-09-09T08:09:25;100123.97;;;36.66;38.88
9415;BME280;4746;35.664;139.738;2022-09-09T08:11:56;100129.28;;;36.40;39.87
9415;BME280;4746;35.664;139.738;2022-09-09T08:14:25;100125.13;;;36.28;39.99
9415;BME280;4746;35.664;139.738;2022-09-09T08:16:53;100133.75;;;36.40;40.06
9415;BME280;4746;35.664;139.738;2022-09-09T08:19:21;100141.44;;;36.25;40.49
9415;BME280;4746;35.664;139.738;2022-09-09T08:21:48;100138.31;;;36.12;40.71
9415;BME280;4746;35.664;139.738;2022-09-09T08:24:16;100137.16;;;35.98;40.70
9415;BME280;4746;35.664;139.738;2022-09-09T08:26:50;100138.19;;;35.87;41.58
9415;BME280;4746;35.664;139.738;2022-09-09T08:29:18;100122.53;;;35.75;42.32
9415;BME280;4746;35.664;139.738;2022-09-09T08:31:53;100133.81;;;35.69;42.09
9415;BME280;4746;35.664;139.738;2022-09-09T08:34:25;100137.66;;;35.57;42.73
9415;BME280;4746;35.664;139.738;2022-09-09T08:36:54;100133.66;;;35.43;42.89
9415;BME280;4746;35.664;139.738;2022-09-09T08:39:22;100129.50;;;35.32;42.85
9415;BME280;4746;35.664;139.738;2022-09-09T08:50:26;100139.53;;;34.92;44.61
9415;BME280;4746;35.664;139.738;2022-09-09T08:53:19;100147.56;;;34.82;44.42
9415;BME280;4746;35.664;139.738;2022-09-09T08:55:51;100152.63;;;34.66;44.83
9415;BME280;4746;35.664;139.738;2022-09-09T08:58:26;100151.81;;;34.57;45.75
9415;BME280;4746;35.664;139.738;2022-09-09T09:04:19;100159.91;;;34.36;46.31
9415;BME280;4746;35.664;139.738;2022-09-09T09:10:01;100176.00;;;34.25;46.24
9415;BME280;4746;35.664;139.738;2022-09-09T09:12:39;100171.66;;;34.15;46.80
9415;BME280;4746;35.664;139.738;2022-09-09T09:15:24;100181.72;;;34.11;47.06
9415;BME280;4746;35.664;139.738;2022-09-09T09:17:53;100174.97;;;33.98;47.64
9415;BME280;4746;35.664;139.738;2022-09-09T09:20:47;100189.81;;;34.00;47.65
9415;BME280;4746;35.664;139.738;2022-09-09T09:23:33;100181.66;;;33.83;48.16
9415;BME280;4746;35.664;139.738;2022-09-09T09:26:10;100182.47;;;33.74;48.21
9415;BME280;4746;35.664;139.738;2022-09-09T09:28:40;100195.03;;;33.63;49.05
9415;BME280;4746;35.664;139.738;2022-09-09T09:31:11;100203.41;;;33.58;49.00
9415;BME280;4746;35.664;139.738;2022-09-09T09:33:50;100205.34;;;33.56;49.33
9415;BME280;4746;35.664;139.738;2022-09-09T09:36:24;100202.75;;;33.45;49.58
9415;BME280;4746;35.664;139.738;2022-09-09T09:39:02;100215.84;;;33.37;49.60
9415;BME280;4746;35.664;139.738;2022-09-09T09:41:49;100225.38;;;33.40;49.55
9415;BME280;4746;35.664;139.738;2022-09-09T09:44:28;100227.72;;;33.33;49.88
9415;BME280;4746;35.664;139.738;2022-09-09T09:47:19;100218.59;;;33.26;49.57
9415;BME280;4746;35.664;139.738;2022-09-09T09:49:58;100233.94;;;33.23;50.18
9415;BME280;4746;35.664;139.738;2022-09-09T09:52:31;100238.53;;;33.01;50.59
9415;BME280;4746;35.664;139.738;2022-09-09T09:55:04;100233.81;;;33.04;50.45
9415;BME280;4746;35.664;139.738;2022-09-09T09:57:40;100237.22;;;32.75;50.96
9415;BME280;4746;35.664;139.738;2022-09-09T10:00:21;100233.72;;;32.74;50.95
9415;BME280;4746;35.664;139.738;2022-09-09T10:02:50;100237.41;;;32.62;51.56
9415;BME280;4746;35.664;139.738;2022-09-09T10:05:29;100238.59;;;32.58;51.84
9415;BME280;4746;35.664;139.738;2022-09-09T10:08:11;100238.63;;;32.47;51.95
9415;BME280;4746;35.664;139.738;2022-09-09T10:14:20;100253.13;;;32.43;51.52
9415;BME280;4746;35.664;139.738;2022-09-09T10:17:53;100257.41;;;32.24;51.77
9415;BME280;4746;35.664;139.738;2022-09-09T10:29:16;100277.38;;;32.39;51.13
9415;BME280;4746;35.664;139.738;2022-09-09T10:34:53;100292.50;;;32.17;51.34
9415;BME280;4746;35.664;139.738;2022-09-09T10:41:00;100293.22;;;32.08;51.29
9415;BME280;4746;35.664;139.738;2022-09-09T10:55:20;100310.56;;;31.79;52.55
9415;BME280;4746;35.664;139.738;2022-09-09T10:57:58;100319.72;;;31.75;52.85
9415;BME280;4746;35.664;139.738;2022-09-09T11:00:53;100311.38;;;31.79;52.20
9415;BME280;4746;35.664;139.738;2022-09-09T11:03:29;100317.06;;;31.75;52.70
9415;BME280;4746;35.664;139.738;2022-09-09T11:06:12;100310.69;;;31.77;52.40
9415;BME280;4746;35.664;139.738;2022-09-09T11:08:42;100321.75;;;31.72;52.58
9415;BME280;4746;35.664;139.738;2022-09-09T11:11:20;100324.91;;;31.76;52.51
9415;BME280;4746;35.664;139.738;2022-09-09T11:16:50;100329.47;;;31.74;52.85
9415;BME280;4746;35.664;139.738;2022-09-09T11:19:41;100330.53;;;31.72;52.13
9415;BME280;4746;35.664;139.738;2022-09-09T11:22:39;100331.50;;;31.71;52.77
9415;BME280;4746;35.664;139.738;2022-09-09T11:25:52;100334.53;;;31.67;52.13
9415;BME280;4746;35.664;139.738;2022-09-09T11:40:36;100322.63;;;31.38;53.48
9415;BME280;4746;35.664;139.738;2022-09-09T11:45:42;100332.63;;;31.34;53.53
9415;BME280;4746;35.664;139.738;2022-09-09T11:48:40;100342.13;;;31.37;53.28
9415;BME280;4746;35.664;139.738;2022-09-09T11:51:26;100339.00;;;31.32;53.54
9415;BME280;4746;35.664;139.738;2022-09-09T11:56:49;100339.41;;;31.15;54.38
9415;BME280;4746;35.664;139.738;2022-09-09T11:59:30;100341.25;;;31.25;54.04
9415;BME280;4746;35.664;139.738;2022-09-09T12:02:30;100336.69;;;31.27;53.79
9415;BME280;4746;35.664;139.738;2022-09-09T12:05:12;100333.56;;;31.22;53.97
9415;BME280;4746;35.664;139.738;2022-09-09T12:10:35;100322.22;;;31.20;54.31
9415;BME280;4746;35.664;139.738;2022-09-09T12:13:18;100324.75;;;31.22;54.39
9415;BME280;4746;35.664;139.738;2022-09-09T12:15:55;100322.94;;;31.22;54.27
9415;BME280;4746;35.664;139.738;2022-09-09T12:18:34;100320.66;;;31.18;54.60
9415;BME280;4746;35.664;139.738;2022-09-09T12:24:08;100310.56;;;31.34;53.94
9415;BME280;4746;35.664;139.738;2022-09-09T12:27:06;100311.66;;;31.31;53.50
9415;BME280;4746;35.664;139.738;2022-09-09T12:30:09;100326.09;;;31.27;53.48
9415;BME280;4746;35.664;139.738;2022-09-09T12:32:38;100323.75;;;31.12;54.20
9415;BME280;4746;35.664;139.738;2022-09-09T12:35:20;100319.19;;;31.14;53.84
9415;BME280;4746;35.664;139.738;2022-09-09T12:38:02;100305.44;;;31.09;54.34
9415;BME280;4746;35.664;139.738;2022-09-09T12:40:34;100311.63;;;30.97;54.32
9415;BME280;4746;35.664;139.738;2022-09-09T12:43:27;100307.31;;;30.96;54.11
9415;BME280;4746;35.664;139.738;2022-09-09T12:46:08;100315.78;;;30.89;54.18
9415;BME280;4746;35.664;139.738;2022-09-09T12:48:40;100321.66;;;30.81;54.96
9415;BME280;4746;35.664;139.738;2022-09-09T12:51:30;100319.75;;;30.83;55.33
9415;BME280;4746;35.664;139.738;2022-09-09T12:54:00;100321.41;;;30.73;55.23
9415;BME280;4746;35.664;139.738;2022-09-09T12:56:34;100317.06;;;30.72;55.40
9415;BME280;4746;35.664;139.738;2022-09-09T12:59:03;100335.53;;;30.61;55.35
9415;BME280;4746;35.664;139.738;2022-09-09T13:01:33;100336.47;;;30.60;55.35
9415;BME280;4746;35.664;139.738;2022-09-09T13:04:01;100337.44;;;30.59;55.94
9415;BME280;4746;35.664;139.738;2022-09-09T13:06:31;100337.63;;;30.56;55.41
9415;BME280;4746;35.664;139.738;2022-09-09T13:09:02;100338.50;;;30.57;55.38
9415;BME280;4746;35.664;139.738;2022-09-09T13:14:06;100352.91;;;30.53;55.97
9415;BME280;4746;35.664;139.738;2022-09-09T13:16:36;100345.81;;;30.53;56.10
9415;BME280;4746;35.664;139.738;2022-09-09T13:19:14;100345.38;;;30.59;55.68
9415;BME280;4746;35.664;139.738;2022-09-09T13:21:43;100348.84;;;30.60;55.79
9415;BME280;4746;35.664;139.738;2022-09-09T13:24:34;100346.16;;;30.72;55.34
9415;BME280;4746;35.664;139.738;2022-09-09T13:27:35;100350.50;;;30.73;55.56
9415;BME280;4746;35.664;139.738;2022-09-09T13:30:36;100355.56;;;30.76;55.66
9415;BME280;4746;35.664;139.738;2022-09-09T13:35:57;100353.88;;;30.75;55.69
9415;BME280;4746;35.664;139.738;2022-09-09T13:38:28;100360.78;;;30.65;55.65
9415;BME280;4746;35.664;139.738;2022-09-09T13:41:04;100362.19;;;30.58;55.55
9415;BME280;4746;35.664;139.738;2022-09-09T13:43:43;100374.91;;;30.53;55.43
9415;BME280;4746;35.664;139.738;2022-09-09T13:46:38;100373.22;;;30.52;55.88
9415;BME280;4746;35.664;139.738;2022-09-09T13:51:39;100384.25;;;30.46;55.65
9415;BME280;4746;35.664;139.738;2022-09-09T13:54:15;100385.72;;;30.50;56.17
9415;BME280;4746;35.664;139.738;2022-09-09T13:56:44;100378.22;;;30.44;56.33
9415;BME280;4746;35.664;139.738;2022-09-09T13:59:18;100377.56;;;30.41;55.70
9415;BME280;4746;35.664;139.738;2022-09-09T14:01:48;100384.34;;;30.32;55.90
9415;BME280;4746;35.664;139.738;2022-09-09T14:04:16;100388.03;;;30.30;56.12
9415;BME280;4746;35.664;139.738;2022-09-09T14:06:44;100379.69;;;30.24;56.32
9415;BME280;4746;35.664;139.738;2022-09-09T14:09:15;100384.25;;;30.22;56.02
9415;BME280;4746;35.664;139.738;2022-09-09T14:11:44;100377.28;;;30.21;56.14
9415;BME280;4746;35.664;139.738;2022-09-09T14:14:13;100377.50;;;30.18;56.12
9415;BME280;4746;35.664;139.738;2022-09-09T14:16:41;100382.03;;;30.16;56.18
9415;BME280;4746;35.664;139.738;2022-09-09T14:19:09;100378.56;;;30.15;56.67
9415;BME280;4746;35.664;139.738;2022-09-09T14:21:37;100388.50;;;30.12;56.43
9415;BME280;4746;35.664;139.738;2022-09-09T14:24:05;100386.78;;;30.11;56.65
9415;BME280;4746;35.664;139.738;2022-09-09T14:26:33;100385.22;;;30.08;56.40
9415;BME280;4746;35.664;139.738;2022-09-09T14:29:01;100381.75;;;30.08;56.97
9415;BME280;4746;35.664;139.738;2022-09-09T14:31:28;100381.94;;;30.05;56.31
9415;BME280;4746;35.664;139.738;2022-09-09T14:33:56;100377.72;;;30.02;56.48
9415;BME280;4746;35.664;139.738;2022-09-09T14:36:23;100378.78;;;30.00;56.89
9415;BME280;4746;35.664;139.738;2022-09-09T14:38:51;100379.41;;;30.03;56.82
9415;BME280;4746;35.664;139.738;2022-09-09T14:41:20;100381.22;;;30.03;56.98
9415;BME280;4746;35.664;139.738;2022-09-09T14:43:50;100388.16;;;30.04;57.03
9415;BME280;4746;35.664;139.738;2022-09-09T14:46:20;100381.94;;;30.05;56.85
9415;BME280;4746;35.664;139.738;2022-09-09T14:48:48;100380.25;;;30.04;57.20
9415;BME280;4746;35.664;139.738;2022-09-09T14:51:24;100384.91;;;30.13;56.56
9415;BME280;4746;35.664;139.738;2022-09-09T14:53:58;100379.81;;;30.10;56.75
9415;BME280;4746;35.664;139.738;2022-09-09T14:56:29;100364.94;;;30.09;57.12
9415;BME280;4746;35.664;139.738;2022-09-09T14:58:59;100359.97;;;30.04;57.14
9415;BME280;4746;35.664;139.738;2022-09-09T15:01:31;100348.97;;;29.98;56.81
9415;BME280;4746;35.664;139.738;2022-09-09T15:04:02;100338.59;;;29.95;57.14
9415;BME280;4746;35.664;139.738;2022-09-09T15:06:35;100343.38;;;29.90;57.09
9415;BME280;4746;35.664;139.738;2022-09-09T15:09:05;100346.53;;;29.82;57.12
9415;BME280;4746;35.664;139.738;2022-09-09T15:11:37;100339.66;;;29.80;57.62
9415;BME280;4746;35.664;139.738;2022-09-09T15:14:06;100329.50;;;29.74;57.51
9415;BME280;4746;35.664;139.738;2022-09-09T15:16:34;100326.31;;;29.69;57.65
9415;BME280;4746;35.664;139.738;2022-09-09T15:19:03;100329.94;;;29.68;57.20
9415;BME280;4746;35.664;139.738;2022-09-09T15:21:35;100322.94;;;29.67;57.59
9415;BME280;4746;35.664;139.738;2022-09-09T15:24:04;100325.06;;;29.62;57.87
9415;BME280;4746;35.664;139.738;2022-09-09T15:26:31;100334.88;;;29.60;57.74